Time;durP1;ratioP1;P1;durP2;ratioP2;P2;SDS_P1;SDS_P2;PMS_P1;PMS_P2;Temp;Humidity;BMP_temperature;BMP_pressure;BME280_temperature;BME280_humidity;BME280_pressure;Samples;Min_cycle;Max_cycle;Signal;HPM_P1;HPM_P2
2021/10/17 00:00:25;;;;;;;5.73;2.87;;;;;;;6.07;74.39;101300.34;5064386;28;20224;-73
2021/10/17 00:02:51;;;;;;;7.07;2.87;;;;;;;6.02;74.84;101302.28;5067659;28;20207;-72
2021/10/17 00:05:20;;;;;;;4.83;2.47;;;;;;;6.00;75.03;101305.88;5066989;28;20200;-73
2021/10/17 00:07:48;;;;;;;3.77;2.70;;;;;;;5.98;75.20;101305.94;5067471;28;20220;-72
2021/10/17 00:10:18;;;;;;;4.83;2.67;;;;;;;5.92;74.85;101306.13;5065789;28;20228;-72
2021/10/17 00:12:45;;;;;;;5.03;2.43;;;;;;;5.85;75.06;101312.53;5064685;28;20212;-72
2021/10/17 00:15:15;;;;;;;4.40;2.70;;;;;;;5.81;75.56;101306.47;5067781;28;20201;-73
2021/10/17 00:17:43;;;;;;;7.37;2.90;;;;;;;5.80;75.85;101304.75;5062278;28;20236;-73
2021/10/17 00:20:10;;;;;;;6.00;2.70;;;;;;;5.79;75.84;101310.94;5062068;28;20726;-73
2021/10/17 00:22:38;;;;;;;7.30;2.77;;;;;;;5.80;75.76;101310.03;5068457;28;20200;-72
2021/10/17 00:25:05;;;;;;;6.60;2.67;;;;;;;5.78;75.90;101303.06;5066779;28;20213;-72
2021/10/17 00:27:31;;;;;;;5.07;2.80;;;;;;;5.77;76.60;101306.63;5071451;28;20201;-72
2021/10/17 00:29:58;;;;;;;5.93;3.10;;;;;;;5.77;76.82;101304.84;5069056;28;20229;-72
2021/10/17 00:32:26;;;;;;;5.20;2.57;;;;;;;5.77;76.49;101301.31;5072073;28;20215;-73
2021/10/17 00:34:53;;;;;;;5.03;2.50;;;;;;;5.76;76.70;101299.59;5066400;28;20221;-72
2021/10/17 00:37:20;;;;;;;5.87;2.70;;;;;;;5.74;76.85;101299.66;5070008;28;20228;-73
2021/10/17 00:39:46;;;;;;;7.07;2.60;;;;;;;5.74;77.09;101298.78;5073862;28;20225;-72
2021/10/17 00:42:14;;;;;;;4.93;2.40;;;;;;;5.70;76.96;101294.53;5068607;28;20209;-73
2021/10/17 00:44:41;;;;;;;5.70;2.30;;;;;;;5.67;77.34;101292.00;5064711;28;20209;-73
2021/10/17 00:47:08;;;;;;;5.50;2.37;;;;;;;5.67;77.31;101292.00;5066828;28;20197;-72
2021/10/17 00:49:36;;;;;;;7.10;2.20;;;;;;;5.67;77.80;101302.56;5067701;28;20231;-73
2021/10/17 00:52:04;;;;;;;6.50;2.63;;;;;;;5.66;77.44;101293.75;5074273;28;20205;-73
2021/10/17 00:54:31;;;;;;;4.77;2.43;;;;;;;5.63;77.88;101288.56;5069397;28;20530;-73
2021/10/17 00:56:57;;;;;;;6.60;2.87;;;;;;;5.63;78.05;101285.06;5065450;28;20714;-72
2021/10/17 00:59:24;;;;;;;4.57;3.03;;;;;;;5.62;78.19;101285.97;5068473;28;20226;-73
2021/10/17 01:01:50;;;;;;;6.13;3.43;;;;;;;5.61;78.53;101286.91;5068506;28;20201;-72
2021/10/17 01:04:17;;;;;;;5.83;2.30;;;;;;;5.59;78.40;101285.16;5066812;28;20641;-72
2021/10/17 01:06:45;;;;;;;8.03;2.70;;;;;;;5.61;78.90;101277.19;5068614;28;20200;-73
2021/10/17 01:09:11;;;;;;;5.30;2.53;;;;;;;5.65;79.15;101283.25;5069356;28;20229;-73
2021/10/17 01:11:41;;;;;;;7.43;3.37;;;;;;;5.67;78.88;101281.41;5070324;28;20204;-72
2021/10/17 01:14:09;;;;;;;2.73;2.33;;;;;;;5.68;79.20;101281.38;5071156;28;20209;-73
2021/10/17 01:16:37;;;;;;;6.70;3.13;;;;;;;5.68;79.28;101278.72;5072235;28;20220;-73
2021/10/17 01:19:04;;;;;;;5.23;3.13;;;;;;;5.70;79.47;101276.91;5069240;28;20233;-73
2021/10/17 01:21:33;;;;;;;8.33;2.80;;;;;;;5.72;79.69;101283.00;5074192;28;20204;-73
2021/10/17 01:23:59;;;;;;;5.10;3.13;;;;;;;5.73;79.69;101286.50;5067925;28;20213;-72
2021/10/17 01:26:26;;;;;;;5.10;2.60;;;;;;;5.74;79.85;101275.84;5067816;28;20227;-72
2021/10/17 01:28:52;;;;;;;4.43;2.90;;;;;;;5.76;80.25;101274.03;5060390;28;20225;-72
2021/10/17 01:31:19;;;;;;;7.13;2.97;;;;;;;5.79;80.56;101273.06;5069684;28;20201;-73
2021/10/17 01:33:45;;;;;;;7.07;3.03;;;;;;;5.80;80.28;101277.44;5068702;28;20423;-73
2021/10/17 01:36:12;;;;;;;4.73;2.80;;;;;;;5.82;80.86;101271.19;5065704;28;20205;-73
2021/10/17 01:38:39;;;;;;;4.87;2.77;;;;;;;5.84;80.61;101266.72;5065019;28;20733;-73
2021/10/17 01:41:06;;;;;;;4.77;3.00;;;;;;;5.88;80.73;101264.84;5065322;28;20208;-72
2021/10/17 01:43:32;;;;;;;4.10;3.20;;;;;;;5.90;81.07;101274.50;5063686;28;20216;-73
2021/10/17 01:45:59;;;;;;;6.93;3.40;;;;;;;5.94;81.23;101256.72;5067938;28;20204;-73
2021/10/17 01:48:25;;;;;;;7.90;2.90;;;;;;;5.97;81.05;101264.53;5063083;28;20223;-72
2021/10/17 01:50:52;;;;;;;7.47;3.50;;;;;;;6.00;81.19;101263.56;5067393;28;20693;-73
2021/10/17 01:53:18;;;;;;;6.17;3.50;;;;;;;6.02;81.26;101273.19;5068199;28;20204;-72
2021/10/17 01:55:46;;;;;;;9.00;3.17;;;;;;;6.05;81.42;101269.59;5066595;28;20201;-72
2021/10/17 01:58:13;;;;;;;5.80;2.90;;;;;;;6.05;81.30;101259.88;5069375;28;21102;-72
2021/10/17 02:00:39;;;;;;;4.67;3.13;;;;;;;6.09;81.38;101253.53;5065447;28;20205;-73
2021/10/17 02:03:06;;;;;;;6.80;3.13;;;;;;;6.11;81.24;101257.00;5074289;28;20212;-72
2021/10/17 02:05:32;;;;;;;6.40;3.33;;;;;;;6.14;81.82;101256.03;5073270;28;20201;-73
2021/10/17 02:07:59;;;;;;;8.40;3.37;;;;;;;6.15;81.53;101250.69;5077442;28;20661;-72
2021/10/17 02:10:25;;;;;;;8.53;2.73;;;;;;;6.17;81.53;101251.50;5072131;28;20233;-72
2021/10/17 02:12:53;;;;;;;5.73;2.73;;;;;;;6.21;81.55;101242.53;5075421;28;20205;-73
2021/10/17 02:15:20;;;;;;;5.43;2.73;;;;;;;6.20;82.06;101238.16;5077978;28;20216;-73
2021/10/17 02:17:46;;;;;;;9.50;3.27;;;;;;;6.21;81.64;101229.31;5074209;28;20237;-73
2021/10/17 02:20:13;;;;;;;5.67;2.77;;;;;;;6.23;81.60;101235.41;5078630;22;20261;-84
2021/10/17 02:22:40;;;;;;;6.83;2.80;;;;;;;6.25;81.48;101244.16;5068880;28;20638;-84
2021/10/17 02:25:08;;;;;;;9.83;3.10;;;;;;;6.26;81.73;101234.44;5052260;28;20217;-83
2021/10/17 02:27:34;;;;;;;5.97;3.27;;;;;;;6.26;81.80;101230.03;5054223;28;20289;-84
2021/10/17 02:30:03;;;;;;;6.50;3.00;;;;;;;6.28;81.89;101235.22;5053169;28;20208;-83
2021/10/17 02:32:30;;;;;;;5.50;2.80;;;;;;;6.30;81.72;101227.22;5048820;28;20229;-84
2021/10/17 02:34:57;;;;;;;7.07;2.53;;;;;;;6.33;82.20;101228.00;5050701;28;20289;-84
2021/10/17 02:37:23;;;;;;;7.43;2.97;;;;;;;6.37;82.27;101220.81;5050357;28;20225;-85
2021/10/17 02:39:50;;;;;;;10.00;3.23;;;;;;;6.42;82.78;101218.88;5047001;28;20681;-83
2021/10/17 02:42:16;;;;;;;5.87;2.70;;;;;;;6.50;82.18;101222.06;5052519;28;20243;-84
2021/10/17 02:44:43;;;;;;;7.83;2.63;;;;;;;6.55;82.19;101221.00;5056140;28;20212;-83
2021/10/17 02:47:11;;;;;;;10.27;2.87;;;;;;;6.61;82.66;101215.47;5053701;28;20245;-85
2021/10/17 02:49:37;;;;;;;7.73;2.73;;;;;;;6.68;82.25;101216.09;5059039;28;20274;-85
2021/10/17 02:52:04;;;;;;;10.73;3.73;;;;;;;6.74;82.51;101215.88;5060113;28;20240;-84
2021/10/17 02:54:31;;;;;;;6.50;2.97;;;;;;;6.79;81.79;101218.34;5051857;28;20212;-84
2021/10/17 02:56:57;;;;;;;6.67;3.30;;;;;;;6.85;81.73;101215.44;5058660;28;20668;-82
2021/10/17 02:59:24;;;;;;;8.13;3.53;;;;;;;6.91;81.33;101213.41;5054619;28;20695;-83
2021/10/17 03:01:50;;;;;;;6.50;2.70;;;;;;;6.97;81.96;101214.97;5051739;28;20213;-84
2021/10/17 03:04:18;;;;;;;7.10;3.27;;;;;;;7.02;81.05;101217.41;5061942;28;20220;-84
2021/10/17 03:06:45;;;;;;;12.60;3.30;;;;;;;7.06;81.04;101213.72;5055528;28;20194;-85
2021/10/17 03:09:12;;;;;;;7.73;3.57;;;;;;;7.11;80.78;101219.72;5057916;28;20201;-84
2021/10/17 03:11:38;;;;;;;11.47;3.00;;;;;;;7.14;80.17;101215.16;5054933;28;20202;-84
2021/10/17 03:14:06;;;;;;;5.23;3.10;;;;;;;7.19;79.79;101207.88;5055369;28;20236;-85
2021/10/17 03:16:33;;;;;;;9.07;3.70;;;;;;;7.24;79.60;101210.34;5048622;28;20197;-84
2021/10/17 03:18:59;;;;;;;8.70;2.93;;;;;;;7.29;79.48;101213.69;5056247;28;20232;-84
2021/10/17 03:21:27;;;;;;;9.60;3.03;;;;;;;7.31;78.94;101212.69;5046034;28;20667;-83
2021/10/17 03:23:54;;;;;;;11.97;3.40;;;;;;;7.35;78.54;101208.09;5043003;28;20603;-83
2021/10/17 03:26:20;;;;;;;8.40;3.20;;;;;;;7.39;78.72;101216.81;5058216;28;20887;-85
2021/10/17 03:28:47;;;;;;;7.47;3.17;;;;;;;7.42;78.02;101214.03;5055974;28;20580;-84
2021/10/17 03:31:14;;;;;;;6.23;3.77;;;;;;;7.45;78.04;101209.47;5048293;28;20198;-84
2021/10/17 03:33:40;;;;;;;7.93;3.40;;;;;;;7.49;78.17;101205.78;5046480;28;20222;-84
2021/10/17 03:36:07;;;;;;;9.53;3.63;;;;;;;7.55;77.88;101204.63;5057342;28;20197;-84
2021/10/17 03:38:35;;;;;;;7.33;3.37;;;;;;;7.58;77.56;101193.91;5057407;28;20298;-84
2021/10/17 03:41:01;;;;;;;10.07;3.57;;;;;;;7.60;77.08;101189.41;5061434;28;20296;-85
2021/10/17 03:43:28;;;;;;;13.40;4.80;;;;;;;7.63;77.29;101186.63;5061005;28;20308;-83
2021/10/17 03:45:55;;;;;;;6.67;4.00;;;;;;;7.65;76.58;101190.94;5061256;28;20210;-83
2021/10/17 03:48:22;;;;;;;6.73;3.50;;;;;;;7.67;76.82;101201.47;5049897;28;20219;-82
2021/10/17 03:50:48;;;;;;;12.80;4.27;;;;;;;7.68;76.97;101199.69;5056658;28;20202;-83
2021/10/17 03:53:15;;;;;;;7.13;4.07;;;;;;;7.70;76.40;101208.44;5061046;28;20246;-83
2021/10/17 03:55:43;;;;;;;8.03;3.60;;;;;;;7.71;76.46;101202.19;5057449;28;20296;-84
2021/10/17 03:58:09;;;;;;;13.53;4.57;;;;;;;7.72;75.77;101199.47;5059508;28;20227;-84
2021/10/17 04:00:36;;;;;;;7.67;3.70;;;;;;;7.73;75.96;101201.19;5072342;28;20201;-84
2021/10/17 04:03:03;;;;;;;10.67;4.10;;;;;;;7.75;75.74;101196.69;5058740;28;20293;-84
2021/10/17 04:05:29;;;;;;;9.73;3.90;;;;;;;7.77;75.56;101199.28;5062879;28;20682;-84
2021/10/17 04:07:56;;;;;;;8.13;3.70;;;;;;;7.78;76.01;101195.72;5078421;28;20273;-83
2021/10/17 04:10:22;;;;;;;8.10;3.83;;;;;;;7.79;74.98;101189.47;5062658;28;20233;-85
2021/10/17 04:12:50;;;;;;;9.30;4.27;;;;;;;7.79;74.76;101192.13;5054758;28;20253;-83
2021/10/17 04:15:17;;;;;;;7.43;3.30;;;;;;;7.80;74.85;101188.56;5045880;28;20289;-83
2021/10/17 04:17:43;;;;;;;10.23;4.37;;;;;;;7.81;75.05;101200.88;5055715;28;20229;-84
2021/10/17 04:20:11;;;;;;;15.80;4.10;;;;;;;7.82;75.33;101202.63;5051748;28;20209;-85
2021/10/17 04:22:40;;;;;;;4.93;3.37;;;;;;;7.82;75.44;101197.31;5056696;28;20233;-85
2021/10/17 04:25:08;;;;;;;11.10;4.23;;;;;;;7.82;74.75;101203.47;5042825;28;20209;-84
2021/10/17 04:27:34;;;;;;;9.90;3.80;;;;;;;7.83;74.84;101201.69;5056482;28;20205;-84
2021/10/17 04:30:03;;;;;;;10.87;3.87;;;;;;;7.84;75.06;101195.47;5060799;28;20208;-83
2021/10/17 04:32:30;;;;;;;8.50;4.93;;;;;;;7.85;74.73;101197.19;5063444;28;20229;-84
2021/10/17 04:34:56;;;;;;;11.03;3.87;;;;;;;7.85;74.72;101189.22;5057741;28;20209;-83
2021/10/17 04:37:23;;;;;;;8.30;3.93;;;;;;;7.86;75.30;101198.91;5076476;22;20323;-72
2021/10/17 04:39:49;;;;;;;13.17;4.80;;;;;;;7.86;75.54;101196.25;5069845;28;20220;-72
2021/10/17 04:42:16;;;;;;;15.03;4.47;;;;;;;7.86;74.69;101198.91;5067593;28;20208;-73
2021/10/17 04:44:42;;;;;;;6.37;3.90;;;;;;;7.86;75.01;101201.56;5065566;28;20197;-73
2021/10/17 04:47:10;;;;;;;10.93;4.93;;;;;;;7.87;75.61;101190.88;5068337;28;20200;-73
2021/10/17 04:49:37;;;;;;;12.20;4.30;;;;;;;7.86;75.16;101188.31;5062661;28;20602;-73
2021/10/17 04:52:03;;;;;;;7.60;3.87;;;;;;;7.87;75.68;101192.69;5076443;22;20229;-69
2021/10/17 04:54:30;;;;;;;10.33;4.07;;;;;;;7.87;75.40;101201.50;5047050;28;20656;-69
2021/10/17 04:56:56;;;;;;;9.23;3.73;;;;;;;7.88;75.70;101202.34;5040924;28;20207;-69
2021/10/17 04:59:23;;;;;;;8.10;3.83;;;;;;;7.87;75.81;101193.53;5039702;28;20241;-69
2021/10/17 05:01:50;;;;;;;8.93;4.00;;;;;;;7.87;75.87;101185.59;5045593;28;20723;-70
2021/10/17 05:04:19;;;;;;;9.00;4.40;;;;;;;7.87;75.54;101196.19;5040802;28;20201;-67
2021/10/17 05:06:46;;;;;;;7.53;3.50;;;;;;;7.88;75.75;101192.56;5047826;28;20201;-72
2021/10/17 05:09:12;;;;;;;9.67;3.40;;;;;;;7.87;76.28;101190.88;5049871;28;20674;-70
2021/10/17 05:11:39;;;;;;;9.43;3.60;;;;;;;7.85;75.95;101186.56;5043286;28;20710;-69
2021/10/17 05:14:05;;;;;;;11.13;4.40;;;;;;;7.85;75.43;101186.56;5048704;28;20208;-69
2021/10/17 05:16:32;;;;;;;11.53;3.57;;;;;;;7.84;75.68;101185.72;5045938;28;20232;-68
2021/10/17 05:18:58;;;;;;;6.80;3.00;;;;;;;7.86;75.02;101198.91;5047279;28;20725;-70
2021/10/17 05:21:28;;;;;;;6.40;3.30;;;;;;;7.87;74.94;101195.31;5043106;28;20226;-72
2021/10/17 05:23:54;;;;;;;6.87;3.40;;;;;;;7.88;75.29;101191.75;5044805;28;20595;-71
2021/10/17 05:26:21;;;;;;;6.03;3.50;;;;;;;7.89;74.36;101198.75;5039798;28;20205;-69
2021/10/17 05:28:47;;;;;;;9.80;3.70;;;;;;;7.90;74.77;101201.34;5048152;28;20204;-69
2021/10/17 05:31:14;;;;;;;8.20;3.23;;;;;;;7.91;74.68;101200.41;5038573;28;20232;-68
2021/10/17 05:33:41;;;;;;;8.00;3.53;;;;;;;7.94;74.69;101196.75;5046080;28;20202;-72
2021/10/17 05:36:08;;;;;;;6.97;3.37;;;;;;;7.95;74.11;101207.31;5046696;28;20210;-69
2021/10/17 05:38:36;;;;;;;7.50;3.13;;;;;;;7.97;74.60;101200.16;5036114;28;20225;-69
2021/10/17 05:41:02;;;;;;;9.00;3.77;;;;;;;7.98;73.83;101212.50;5036201;28;20237;-68
2021/10/17 05:43:30;;;;;;;7.03;3.20;;;;;;;8.00;73.58;101212.41;5041886;28;20229;-69
2021/10/17 05:45:57;;;;;;;8.07;3.10;;;;;;;8.01;73.84;101222.97;5036532;28;20583;-68
2021/10/17 05:48:23;;;;;;;12.03;3.83;;;;;;;8.03;73.17;101222.91;5039372;28;20213;-68
2021/10/17 05:50:50;;;;;;;8.93;3.97;;;;;;;8.04;73.51;101219.31;5034550;28;20588;-69
2021/10/17 05:53:16;;;;;;;10.40;4.30;;;;;;;8.06;73.91;101224.56;5038429;28;20297;-69
2021/10/17 05:55:44;;;;;;;13.07;4.33;;;;;;;8.07;74.02;101232.44;5040458;28;20210;-69
2021/10/17 05:58:11;;;;;;;7.83;3.60;;;;;;;8.08;73.64;101220.03;5039487;28;20232;-67
2021/10/17 06:00:38;;;;;;;8.87;3.90;;;;;;;8.09;73.83;101214.66;5040226;28;20199;-68
2021/10/17 06:03:04;;;;;;;6.93;4.67;;;;;;;8.09;74.45;101229.72;5040066;28;20222;-72
2021/10/17 06:05:31;;;;;;;10.20;4.00;;;;;;;8.09;74.72;101235.00;5037633;28;20207;-72
2021/10/17 06:07:58;;;;;;;9.43;3.80;;;;;;;8.09;74.10;101232.38;5036403;28;20195;-71
2021/10/17 06:10:25;;;;;;;11.10;4.13;;;;;;;8.09;74.11;101229.72;5037738;28;20208;-72
2021/10/17 06:12:53;;;;;;;8.50;4.23;;;;;;;8.09;73.97;101232.38;5041508;28;20229;-69
2021/10/17 06:15:19;;;;;;;8.67;4.40;;;;;;;8.09;74.52;101230.56;5037264;28;20245;-69
2021/10/17 06:17:46;;;;;;;9.10;4.33;;;;;;;8.09;74.12;101229.72;5040435;28;20209;-69
2021/10/17 06:20:12;;;;;;;12.47;4.47;;;;;;;8.10;74.88;101240.25;5041599;28;20245;-69
2021/10/17 06:22:39;;;;;;;8.07;3.83;;;;;;;8.10;75.24;101234.94;5038286;28;20224;-68
2021/10/17 06:25:06;;;;;;;8.03;3.70;;;;;;;8.10;74.96;101234.94;5041814;28;20206;-69
2021/10/17 06:27:33;;;;;;;11.53;4.00;;;;;;;8.09;74.69;101235.88;5036621;28;20203;-70
2021/10/17 06:30:01;;;;;;;7.57;3.40;;;;;;;8.10;74.39;101240.25;5041906;28;20202;-69
2021/10/17 06:32:27;;;;;;;8.30;3.80;;;;;;;8.10;75.01;101250.00;5045515;28;20222;-71
2021/10/17 06:34:54;;;;;;;7.77;3.80;;;;;;;8.11;74.64;101251.72;5038818;28;20198;-70
2021/10/17 06:37:20;;;;;;;8.80;4.30;;;;;;;8.11;75.00;101241.97;5041171;28;20600;-69
2021/10/17 06:39:47;;;;;;;9.03;3.37;;;;;;;8.11;75.08;101247.28;5037531;28;20240;-69
2021/10/17 06:42:14;;;;;;;10.47;4.20;;;;;;;8.13;74.47;101255.19;5041939;28;20222;-70
2021/10/17 06:44:40;;;;;;;8.43;3.60;;;;;;;8.13;74.58;101258.69;5043923;28;20201;-69
2021/10/17 06:47:08;;;;;;;5.87;3.50;;;;;;;8.13;74.68;101248.09;5041881;28;20202;-69
2021/10/17 06:49:35;;;;;;;10.07;4.10;;;;;;;8.14;74.48;101252.47;5041612;28;20202;-70
2021/10/17 06:52:01;;;;;;;9.83;4.13;;;;;;;8.17;74.47;101251.47;5043762;28;20241;-69
2021/10/17 06:54:28;;;;;;;7.23;3.87;;;;;;;8.19;74.54;101254.94;5042844;28;20581;-70
2021/10/17 06:56:54;;;;;;;9.97;4.13;;;;;;;8.21;74.96;101253.94;5035920;28;20215;-70
2021/10/17 06:59:21;;;;;;;9.97;3.60;;;;;;;8.23;74.74;101264.47;5035050;28;20226;-69
2021/10/17 07:01:47;;;;;;;11.27;3.90;;;;;;;8.24;74.62;101253.78;5038100;28;20236;-73
2021/10/17 07:04:15;;;;;;;8.07;4.17;;;;;;;8.25;74.30;101260.81;5043067;28;20711;-68
2021/10/17 07:06:42;;;;;;;6.60;3.70;;;;;;;8.28;74.25;101265.97;5042721;28;20206;-69
2021/10/17 07:09:08;;;;;;;10.23;3.80;;;;;;;8.29;74.11;101257.09;5034779;28;20209;-70
2021/10/17 07:11:35;;;;;;;8.57;3.57;;;;;;;8.32;73.51;101267.63;5039039;28;20225;-69
2021/10/17 07:14:01;;;;;;;9.87;3.97;;;;;;;8.35;73.93;101272.78;5042211;28;20232;-68
2021/10/17 07:16:28;;;;;;;10.63;4.10;;;;;;;8.38;73.35;101274.47;5037497;28;20437;-69
2021/10/17 07:18:54;;;;;;;13.10;4.83;;;;;;;8.43;73.61;101279.53;5037395;28;20226;-70
2021/10/17 07:21:22;;;;;;;8.60;4.40;;;;;;;8.48;73.44;101277.53;5041603;28;20225;-70
2021/10/17 07:23:49;;;;;;;7.20;3.50;;;;;;;8.53;73.65;101283.53;5041918;28;20204;-70
2021/10/17 07:26:15;;;;;;;10.87;4.43;;;;;;;8.58;73.69;101273.56;5034955;28;20232;-67
2021/10/17 07:28:42;;;;;;;8.70;3.47;;;;;;;8.61;73.77;101265.44;5035305;28;20202;-69
2021/10/17 07:31:08;;;;;;;7.47;3.83;;;;;;;8.65;74.15;101261.72;5039277;28;20234;-69
2021/10/17 07:33:35;;;;;;;8.70;4.57;;;;;;;8.68;74.45;101269.56;5039619;28;20309;-70
2021/10/17 07:36:02;;;;;;;13.10;6.40;;;;;;;8.69;73.78;101269.47;5049111;28;20231;-70
2021/10/17 07:38:30;;;;;;;8.77;4.33;;;;;;;8.74;74.08;101269.28;5050497;28;20239;-69
2021/10/17 07:40:57;;;;;;;10.77;5.73;;;;;;;8.76;74.09;101264.75;5038090;28;20217;-68
2021/10/17 07:43:24;;;;;;;11.30;5.33;;;;;;;8.81;74.41;101273.34;5039611;28;20202;-70
2021/10/17 07:45:51;;;;;;;10.70;5.43;;;;;;;8.85;74.11;101280.25;5038156;28;20241;-69
2021/10/17 07:48:17;;;;;;;12.13;5.37;;;;;;;8.91;74.36;101287.09;5042388;28;20210;-68
2021/10/17 07:50:44;;;;;;;10.50;4.27;;;;;;;8.95;73.79;101284.22;5042612;28;20294;-68
2021/10/17 07:53:10;;;;;;;11.00;4.30;;;;;;;8.99;74.38;101293.75;5039967;28;20577;-70
2021/10/17 07:55:38;;;;;;;9.07;4.93;;;;;;;9.02;73.33;101290.97;5037917;28;20214;-70
2021/10/17 07:58:05;;;;;;;8.63;4.27;;;;;;;9.08;73.19;101291.63;5034772;28;20204;-69
2021/10/17 08:00:31;;;;;;;20.53;4.90;;;;;;;9.11;73.13;101289.69;5037416;28;20214;-69
2021/10/17 08:02:58;;;;;;;6.60;3.83;;;;;;;9.16;73.33;101292.09;5033995;28;20260;-68
2021/10/17 08:05:24;;;;;;;8.30;4.00;;;;;;;9.19;73.51;101284.84;5036860;28;20201;-69
2021/10/17 08:07:51;;;;;;;8.87;4.53;;;;;;;9.24;73.43;101285.50;5042642;28;20216;-68
2021/10/17 08:10:17;;;;;;;10.50;4.20;;;;;;;9.27;73.08;101290.69;5041776;28;20208;-68
2021/10/17 08:12:45;;;;;;;10.30;3.90;;;;;;;9.33;73.03;101295.69;5042234;28;20229;-69
2021/10/17 08:15:12;;;;;;;8.77;3.80;;;;;;;9.36;72.60;101295.53;5044222;28;20205;-68
2021/10/17 08:17:39;;;;;;;6.87;3.70;;;;;;;9.40;72.21;101298.91;5041797;28;20209;-68
2021/10/17 08:20:07;;;;;;;10.47;3.57;;;;;;;9.44;72.08;101304.97;5034646;28;20230;-68
2021/10/17 08:22:35;;;;;;;6.70;3.50;;;;;;;9.44;70.96;101305.81;5036496;28;21190;-70
2021/10/17 08:25:01;;;;;;;7.73;3.33;;;;;;;9.47;71.25;101307.47;5038325;28;20237;-68
2021/10/17 08:27:28;;;;;;;9.50;3.63;;;;;;;9.51;70.92;101303.69;5035765;28;20205;-69
2021/10/17 08:29:56;;;;;;;8.00;3.87;;;;;;;9.54;70.44;101309.75;5036632;28;20216;-70
2021/10/17 08:32:22;;;;;;;10.50;4.10;;;;;;;9.57;69.69;101304.28;5033178;28;20217;-69
2021/10/17 08:34:49;;;;;;;9.83;3.80;;;;;;;9.60;70.13;101308.59;5035386;28;20202;-70
2021/10/17 08:37:15;;;;;;;10.13;3.83;;;;;;;9.63;69.80;101306.66;5036732;28;20206;-70
2021/10/17 08:39:42;;;;;;;5.17;3.37;;;;;;;9.65;69.38;101304.78;5038501;28;20230;-69
2021/10/17 08:42:09;;;;;;;7.77;3.83;;;;;;;9.67;69.64;101308.19;5033406;28;20222;-69
2021/10/17 08:44:35;;;;;;;8.70;3.87;;;;;;;9.70;68.91;101301.88;5036115;28;20206;-69
2021/10/17 08:47:04;;;;;;;11.40;4.00;;;;;;;9.73;68.78;101318.53;5038970;28;20201;-69
2021/10/17 08:49:30;;;;;;;8.03;3.90;;;;;;;9.75;68.91;101322.00;5032113;28;20569;-69
2021/10/17 08:51:57;;;;;;;10.20;3.83;;;;;;;9.78;68.62;101318.34;5032966;28;20731;-68
2021/10/17 08:54:23;;;;;;;9.83;4.53;;;;;;;9.80;68.31;101323.56;5031798;28;20218;-69
2021/10/17 08:56:50;;;;;;;10.70;3.90;;;;;;;9.82;68.40;101316.38;5030031;28;20206;-69
2021/10/17 08:59:16;;;;;;;7.67;4.23;;;;;;;9.84;68.29;101320.69;5033406;28;20617;-69
2021/10/17 09:01:43;;;;;;;9.40;4.23;;;;;;;9.87;68.77;101323.19;5029578;28;20595;-69
2021/10/17 09:04:15;;;;;;;10.83;4.07;;;;;;;9.89;68.24;101318.66;5038506;28;20224;-70
2021/10/17 09:06:44;;;;;;;6.57;3.53;;;;;;;9.90;68.34;101317.72;5040122;28;20239;-70
2021/10/17 09:09:12;;;;;;;7.57;3.80;;;;;;;9.94;68.34;101310.44;5043355;28;20204;-69
2021/10/17 09:11:41;;;;;;;10.40;4.47;;;;;;;9.96;68.65;101312.09;5033430;28;20222;-70
2021/10/17 09:14:09;;;;;;;10.70;4.30;;;;;;;9.97;68.08;101312.97;5047949;28;20217;-70
2021/10/17 09:16:38;;;;;;;10.03;4.37;;;;;;;9.99;67.66;101314.59;5040227;28;20203;-70
2021/10/17 09:19:15;;;;;;;11.67;4.30;;;;;;;10.01;67.56;101314.53;5038892;28;20726;-70
2021/10/17 09:22:02;;;;;;;7.23;4.77;;;;;;;10.05;68.07;101308.09;5047285;28;20232;-70
2021/10/17 09:24:32;;;;;;;8.53;4.57;;;;;;;10.06;67.48;101313.34;5037908;28;20206;-70
2021/10/17 09:27:10;;;;;;;10.70;4.67;;;;;;;10.10;67.54;101319.38;5049332;28;21228;-69
2021/10/17 09:29:38;;;;;;;10.00;5.67;;;;;;;10.13;67.59;101318.38;5046512;28;20671;-69
2021/10/17 09:32:12;;;;;;;10.73;5.00;;;;;;;10.14;67.46;101315.63;5036960;28;20226;-70
2021/10/17 09:34:40;;;;;;;7.33;4.50;;;;;;;10.18;67.36;101311.88;5045552;28;20574;-70
2021/10/17 09:37:08;;;;;;;8.57;4.50;;;;;;;10.20;67.26;101314.50;5045513;28;20209;-69
2021/10/17 09:39:37;;;;;;;9.70;4.20;;;;;;;10.23;67.08;101315.16;5042637;28;20255;-70
2021/10/17 09:42:03;;;;;;;9.07;3.33;;;;;;;10.26;66.80;101315.03;5042746;28;20266;-70
2021/10/17 09:44:38;;;;;;;10.83;3.93;;;;;;;10.29;67.22;101317.53;5046924;28;20288;-70
2021/10/17 09:47:04;;;;;;;9.93;3.83;;;;;;;10.34;66.70;101314.63;5044474;28;20206;-70
2021/10/17 09:49:31;;;;;;;7.47;3.33;;;;;;;10.35;66.85;101322.53;5049408;28;20198;-68
2021/10/17 09:52:14;;;;;;;8.10;3.77;;;;;;;10.40;66.78;101331.13;5043043;28;20257;-68
2021/10/17 09:54:41;;;;;;;8.17;3.40;;;;;;;10.43;66.92;101328.31;5051605;28;20205;-69
2021/10/17 09:57:08;;;;;;;7.23;4.07;;;;;;;10.48;66.88;101320.09;5043763;28;20216;-69
2021/10/17 09:59:35;;;;;;;8.47;3.60;;;;;;;10.51;66.88;101313.75;5040582;28;20611;-69
2021/10/17 10:02:05;;;;;;;10.63;3.83;;;;;;;10.55;66.96;101312.66;5047123;28;20596;-70
2021/10/17 10:04:31;;;;;;;7.33;3.27;;;;;;;10.59;66.58;101309.72;5041491;28;20202;-68
2021/10/17 10:06:59;;;;;;;7.97;4.00;;;;;;;10.61;66.74;101309.66;5039536;28;20584;-68
2021/10/17 10:09:30;;;;;;;10.47;3.63;;;;;;;10.64;66.59;101304.16;5044405;28;20579;-69
2021/10/17 10:11:57;;;;;;;9.40;3.83;;;;;;;10.65;66.36;101306.75;5036648;28;20321;-70
2021/10/17 10:14:24;;;;;;;5.03;3.40;;;;;;;10.70;66.52;101310.03;5034950;28;20206;-70
2021/10/17 10:16:55;;;;;;;8.90;3.30;;;;;;;10.75;66.54;101299.13;5038977;28;20213;-70
2021/10/17 10:19:22;;;;;;;8.70;3.17;;;;;;;10.80;66.36;101302.41;5034429;28;20227;-68
2021/10/17 10:21:50;;;;;;;6.20;3.50;;;;;;;10.83;66.01;101307.56;5035594;28;20226;-71
2021/10/17 10:24:19;;;;;;;8.63;3.70;;;;;;;10.86;66.11;101298.56;5040779;28;20260;-71
2021/10/17 10:26:52;;;;;;;7.47;3.50;;;;;;;10.90;65.99;101300.97;5038449;28;20198;-71
2021/10/17 10:29:26;;;;;;;7.73;3.20;;;;;;;10.94;66.05;101301.66;5037874;28;20211;-71
2021/10/17 10:31:55;;;;;;;8.63;3.60;;;;;;;10.97;66.06;101294.34;5039304;28;20248;-71
2021/10/17 10:34:51;;;;;;;7.73;3.73;;;;;;;11.02;66.01;101305.63;5037296;28;20207;-71
2021/10/17 10:37:19;;;;;;;11.37;4.03;;;;;;;11.04;65.95;101311.75;5047832;28;20250;-71
2021/10/17 10:40:22;;;;;;;8.50;4.00;;;;;;;11.09;65.96;101316.84;5043325;28;20594;-71
2021/10/17 10:42:52;;;;;;;7.37;3.40;;;;;;;11.15;65.79;101316.47;5037690;28;20223;-71
2021/10/17 10:45:34;;;;;;;6.13;2.90;;;;;;;11.19;65.75;101311.84;5045888;28;20212;-70
2021/10/17 10:48:19;;;;;;;7.90;3.40;;;;;;;11.24;65.63;101309.78;5040665;28;20306;-71
2021/10/17 10:50:47;;;;;;;7.30;3.27;;;;;;;11.28;65.20;101308.69;5036991;28;20670;-71
2021/10/17 10:53:51;;;;;;;9.87;3.23;;;;;;;11.32;65.44;101316.41;5090391;22;20738;-76
2021/10/17 10:56:40;;;;;;;6.10;3.20;;;;;;;11.38;65.25;101313.41;5082840;28;20688;-76
2021/10/17 10:59:09;;;;;;;12.47;7.93;;;;;;;11.42;65.00;101316.75;5082860;28;20584;-75
2021/10/17 11:01:53;;;;;;;8.13;3.77;;;;;;;11.47;64.79;101318.19;5077661;28;20222;-76
2021/10/17 11:04:59;;;;;;;7.47;3.43;;;;;;;11.53;64.79;101311.66;5083462;28;20205;-76
2021/10/17 11:07:31;;;;;;;7.47;3.10;;;;;;;11.60;64.79;101310.38;5083703;28;20204;-76
2021/10/17 11:10:18;;;;;;;6.10;3.33;;;;;;;11.64;64.58;101317.28;5092273;28;20690;-76
2021/10/17 11:12:44;;;;;;;7.00;3.97;;;;;;;11.70;64.44;101322.22;5089128;28;20719;-76
2021/10/17 11:15:14;;;;;;;8.83;3.40;;;;;;;11.74;64.35;101317.59;5091293;28;20204;-74
2021/10/17 11:17:48;;;;;;;5.07;3.10;;;;;;;11.79;64.17;101313.75;5086727;28;20214;-76
2021/10/17 11:20:18;;;;;;;5.93;3.10;;;;;;;11.83;64.04;101320.59;5087911;28;20225;-76
2021/10/17 11:22:45;;;;;;;6.07;3.50;;;;;;;11.89;63.90;101314.06;5090417;28;20218;-76
2021/10/17 11:25:15;;;;;;;6.50;3.53;;;;;;;11.95;63.91;101312.84;5086558;28;20208;-76
2021/10/17 11:27:42;;;;;;;5.73;3.10;;;;;;;12.00;63.61;101314.28;5087502;28;20200;-76
2021/10/17 11:30:21;;;;;;;6.20;2.80;;;;;;;12.05;63.38;101319.34;5091690;28;20197;-78
2021/10/17 11:32:47;;;;;;;7.83;3.07;;;;;;;12.13;63.12;101314.44;5080705;28;20232;-76